Time;durP1;ratioP1;P1;durP2;ratioP2;P2;SDS_P1;SDS_P2;PMS_P1;PMS_P2;Temp;Humidity;BMP_temperature;BMP_pressure;BME280_temperature;BME280_humidity;BME280_pressure;Samples;Min_cycle;Max_cycle;Signal;HPM_P1;HPM_P2
2024/01/21 00:02:42;;;;;;;2.95;2.75;;;;;;;;;;10187507;28;20070;-71
2024/01/21 00:07:34;;;;;;;3.55;2.60;;;;;;;;;;10187488;28;20079;-71
2024/01/21 00:12:26;;;;;;;2.75;2.47;;;;;;;;;;10188286;28;20079;-72
2024/01/21 00:17:18;;;;;;;4.10;2.97;;;;;;;;;;10187364;28;20382;-72
2024/01/21 00:22:10;;;;;;;4.53;2.75;;;;;;;;;;10185884;28;20135;-71
2024/01/21 00:27:02;;;;;;;2.90;2.70;;;;;;;;;;10187358;28;20047;-71
2024/01/21 00:31:54;;;;;;;2.90;2.67;;;;;;;;;;10185593;28;20068;-71
2024/01/21 00:36:46;;;;;;;2.35;2.20;;;;;;;;;;10186267;28;20032;-71
2024/01/21 00:41:38;;;;;;;2.50;2.30;;;;;;;;;;10177923;28;20097;-71
2024/01/21 00:46:38;;;;;;;2.80;2.65;;;;;;;;;;10146643;28;20174;-72
2024/01/21 00:51:30;;;;;;;2.70;2.50;;;;;;;;;;10147100;28;20398;-72
2024/01/21 00:56:22;;;;;;;2.72;2.53;;;;;;;;;;10147908;28;20045;-71
2024/01/21 01:01:14;;;;;;;3.35;3.03;;;;;;;;;;10148229;28;20033;-72
2024/01/21 01:06:07;;;;;;;3.97;3.58;;;;;;;;;;10146772;28;20127;-72
2024/01/21 01:10:59;;;;;;;5.18;4.20;;;;;;;;;;10146995;28;20123;-72
2024/01/21 01:15:50;;;;;;;3.75;3.45;;;;;;;;;;10148315;28;20066;-71
2024/01/21 01:20:42;;;;;;;3.53;3.25;;;;;;;;;;10146217;28;20040;-72
2024/01/21 01:25:34;;;;;;;3.63;3.33;;;;;;;;;;10146531;28;20051;-72
2024/01/21 01:30:26;;;;;;;4.85;3.75;;;;;;;;;;10147429;28;20094;-72
2024/01/21 01:35:18;;;;;;;5.35;3.05;;;;;;;;;;10146601;28;20037;-72
2024/01/21 01:40:10;;;;;;;3.38;3.05;;;;;;;;;;10146104;28;20068;-72
2024/01/21 01:45:02;;;;;;;3.17;2.90;;;;;;;;;;10145003;28;20365;-71
2024/01/21 01:49:54;;;;;;;2.88;2.67;;;;;;;;;;10146199;28;20045;-72
2024/01/21 01:54:46;;;;;;;4.95;3.20;;;;;;;;;;10127697;28;20131;-71
2024/01/21 01:59:39;;;;;;;3.92;2.60;;;;;;;;;;10127463;28;20051;-71
2024/01/21 02:04:31;;;;;;;2.78;2.58;;;;;;;;;;10145896;28;20055;-72
2024/01/21 02:09:23;;;;;;;3.03;2.72;;;;;;;;;;10146164;28;20040;-71
2024/01/21 02:14:15;;;;;;;3.33;2.72;;;;;;;;;;10145098;28;20494;-72
2024/01/21 02:19:12;;;;;;;2.70;2.50;;;;;;;;;;10144665;28;20040;-72
2024/01/21 02:24:04;;;;;;;3.65;3.17;;;;;;;;;;10144348;28;20070;-71
2024/01/21 02:28:56;;;;;;;3.30;2.95;;;;;;;;;;10146368;28;20186;-71
2024/01/21 02:33:47;;;;;;;3.38;3.10;;;;;;;;;;10145181;28;20048;-71
2024/01/21 02:38:40;;;;;;;4.25;2.83;;;;;;;;;;10144598;28;20119;-71
2024/01/21 02:43:32;;;;;;;3.45;2.70;;;;;;;;;;10146635;28;20098;-72
2024/01/21 02:48:23;;;;;;;3.33;3.10;;;;;;;;;;10153399;28;20064;-70
2024/01/21 02:53:15;;;;;;;3.28;3.08;;;;;;;;;;10152478;28;20131;-72
2024/01/21 02:58:07;;;;;;;4.95;2.83;;;;;;;;;;10153760;28;20376;-71
2024/01/21 03:02:59;;;;;;;3.60;3.30;;;;;;;;;;10151386;28;20052;-71
2024/01/21 03:07:51;;;;;;;5.10;3.78;;;;;;;;;;10155619;28;20048;-71
2024/01/21 03:12:43;;;;;;;3.17;2.92;;;;;;;;;;10151243;28;20052;-71
2024/01/21 03:17:35;;;;;;;3.90;2.70;;;;;;;;;;10154325;28;20424;-71
2024/01/21 03:22:27;;;;;;;3.33;3.13;;;;;;;;;;10151499;28;20056;-71
2024/01/21 03:27:19;;;;;;;3.40;2.70;;;;;;;;;;10151000;28;20044;-71
2024/01/21 03:32:11;;;;;;;2.92;2.53;;;;;;;;;;10150715;28;20420;-71
2024/01/21 03:37:03;;;;;;;2.65;2.45;;;;;;;;;;10150589;28;20044;-71
2024/01/21 03:41:55;;;;;;;3.25;2.95;;;;;;;;;;10151101;28;20069;-72
2024/01/21 03:46:47;;;;;;;3.33;2.60;;;;;;;;;;10151543;28;20059;-71
2024/01/21 03:51:39;;;;;;;6.50;2.75;;;;;;;;;;10151192;28;20044;-71
2024/01/21 03:56:31;;;;;;;2.50;2.40;;;;;;;;;;10148224;28;20044;-72
2024/01/21 04:01:23;;;;;;;2.10;2.00;;;;;;;;;;10154988;28;20044;-71
2024/01/21 04:06:15;;;;;;;2.47;2.30;;;;;;;;;;10157368;28;20045;-72
2024/01/21 04:11:07;;;;;;;2.72;2.53;;;;;;;;;;10154112;28;20395;-72
2024/01/21 04:15:59;;;;;;;3.22;2.50;;;;;;;;;;10149843;28;20048;-72
2024/01/21 04:20:51;;;;;;;2.67;2.45;;;;;;;;;;10149087;28;20041;-71
2024/01/21 04:25:43;;;;;;;3.00;2.80;;;;;;;;;;10149572;28;20140;-72
2024/01/21 04:30:35;;;;;;;3.15;2.55;;;;;;;;;;10149172;28;20331;-72
2024/01/21 04:35:27;;;;;;;5.07;3.65;;;;;;;;;;10149064;28;20044;-72
2024/01/21 04:40:19;;;;;;;2.75;2.60;;;;;;;;;;10149838;28;20418;-72
2024/01/21 04:45:11;;;;;;;2.78;2.63;;;;;;;;;;10148250;28;20106;-71
2024/01/21 04:50:03;;;;;;;2.72;2.53;;;;;;;;;;10151669;28;20040;-71
2024/01/21 04:54:55;;;;;;;2.60;2.40;;;;;;;;;;10148100;28;20040;-72
2024/01/21 04:59:47;;;;;;;2.50;2.40;;;;;;;;;;10147363;28;20057;-71
2024/01/21 05:04:38;;;;;;;2.38;2.17;;;;;;;;;;10146738;28;20063;-72
2024/01/21 05:09:30;;;;;;;5.57;3.50;;;;;;;;;;10147663;28;20040;-72
2024/01/21 05:14:22;;;;;;;2.95;2.75;;;;;;;;;;10147429;28;20535;-71
2024/01/21 05:19:15;;;;;;;4.45;3.65;;;;;;;;;;10147338;28;20041;-71
2024/01/21 05:24:06;;;;;;;7.15;5.57;;;;;;;;;;10146714;28;20386;-71
2024/01/21 05:29:00;;;;;;;4.70;4.28;;;;;;;;;;10146544;28;20044;-72
2024/01/21 05:33:52;;;;;;;7.57;5.05;;;;;;;;;;10146851;28;20049;-71
2024/01/21 05:38:44;;;;;;;6.97;5.78;;;;;;;;;;10146464;28;20047;-72
2024/01/21 05:43:36;;;;;;;6.95;4.30;;;;;;;;;;10155575;28;20127;-72
2024/01/21 05:48:28;;;;;;;6.32;5.72;;;;;;;;;;10145595;28;20138;-72
2024/01/21 05:53:20;;;;;;;20.90;12.55;;;;;;;;;;10146365;28;20040;-72
2024/01/21 05:58:12;;;;;;;23.08;14.00;;;;;;;;;;10180690;28;20052;-72
2024/01/21 06:03:04;;;;;;;30.98;21.70;;;;;;;;;;10179146;28;20098;-72
2024/01/21 06:07:56;;;;;;;12.50;8.75;;;;;;;;;;10175662;28;20202;-71
2024/01/21 06:12:48;;;;;;;19.25;11.35;;;;;;;;;;10181025;28;20096;-72
2024/01/21 06:17:40;;;;;;;156.05;83.82;;;;;;;;;;10180909;28;20209;-71
2024/01/21 06:22:32;;;;;;;13.52;11.00;;;;;;;;;;10171511;28;20044;-71
2024/01/21 06:27:24;;;;;;;9.68;6.45;;;;;;;;;;10189395;28;20101;-70
2024/01/21 06:32:16;;;;;;;40.03;22.75;;;;;;;;;;10176923;28;20055;-71
2024/01/21 06:37:08;;;;;;;11.93;9.40;;;;;;;;;;10153882;28;20044;-71
2024/01/21 06:42:01;;;;;;;5.47;4.97;;;;;;;;;;10168299;28;20086;-73
2024/01/21 06:46:53;;;;;;;3.70;3.45;;;;;;;;;;10176846;28;20052;-71
2024/01/21 06:51:53;;;;;;;3.40;3.20;;;;;;;;;;10177040;28;20131;-73
2024/01/21 06:56:45;;;;;;;4.05;3.53;;;;;;;;;;10187279;28;20109;-73
2024/01/21 07:01:37;;;;;;;6.78;5.00;;;;;;;;;;10185499;28;20044;-73
2024/01/21 07:06:29;;;;;;;10.75;6.70;;;;;;;;;;10190010;28;20416;-71
2024/01/21 07:11:22;;;;;;;7.72;5.85;;;;;;;;;;10188994;28;20140;-71
2024/01/21 07:16:14;;;;;;;4.90;4.50;;;;;;;;;;10188625;28;20067;-70
2024/01/21 07:21:06;;;;;;;8.82;6.13;;;;;;;;;;10190001;28;20047;-73
2024/01/21 07:25:57;;;;;;;17.88;11.10;;;;;;;;;;10188182;28;20205;-73
2024/01/21 07:30:49;;;;;;;10.60;5.32;;;;;;;;;;10188035;28;20075;-72
2024/01/21 07:35:41;;;;;;;13.93;9.60;;;;;;;;;;10188404;28;20036;-73
2024/01/21 07:40:33;;;;;;;4.85;4.38;;;;;;;;;;10187015;28;20150;-74
2024/01/21 07:45:25;;;;;;;6.25;5.47;;;;;;;;;;10187643;28;20094;-74
2024/01/21 07:50:21;;;;;;;7.53;6.55;;;;;;;;;;10188299;28;20064;-74
2024/01/21 07:55:13;;;;;;;7.93;4.70;;;;;;;;;;10186809;28;20059;-74
2024/01/21 08:00:07;;;;;;;5.05;4.30;;;;;;;;;;10170843;28;20039;-74
2024/01/21 08:05:00;;;;;;;5.45;4.95;;;;;;;;;;10182909;28;20109;-74
2024/01/21 08:09:52;;;;;;;5.95;4.50;;;;;;;;;;10183494;28;20113;-74
2024/01/21 08:14:44;;;;;;;5.18;4.75;;;;;;;;;;10186614;28;20467;-74
2024/01/21 08:19:38;;;;;;;5.13;4.63;;;;;;;;;;10186490;28;20044;-74
2024/01/21 08:24:30;;;;;;;9.27;5.70;;;;;;;;;;10183444;28;20048;-74
2024/01/21 08:29:22;;;;;;;8.20;7.10;;;;;;;;;;10183281;28;20036;-74
2024/01/21 08:34:14;;;;;;;17.98;11.77;;;;;;;;;;10184083;28;20094;-74
2024/01/21 08:39:06;;;;;;;14.00;11.73;;;;;;;;;;10183050;28;20046;-74
2024/01/21 08:43:58;;;;;;;19.20;14.80;;;;;;;;;;10183452;28;20052;-74
2024/01/21 08:48:50;;;;;;;4.97;4.43;;;;;;;;;;10182168;28;20112;-74
2024/01/21 08:53:41;;;;;;;17.13;10.88;;;;;;;;;;10181986;28;20075;-73
2024/01/21 08:58:33;;;;;;;6.40;4.57;;;;;;;;;;10186062;28;20048;-73
2024/01/21 09:03:25;;;;;;;5.78;5.05;;;;;;;;;;10182403;28;20150;-73
2024/01/21 09:08:17;;;;;;;4.13;3.70;;;;;;;;;;10178864;28;20417;-71
2024/01/21 09:13:09;;;;;;;4.70;4.20;;;;;;;;;;10179163;28;20543;-72
2024/01/21 09:18:01;;;;;;;5.53;5.03;;;;;;;;;;10169079;28;20036;-74
2024/01/21 09:22:53;;;;;;;5.20;4.82;;;;;;;;;;10166585;28;20036;-73
2024/01/21 09:27:45;;;;;;;8.25;7.38;;;;;;;;;;10151282;28;20101;-73
2024/01/21 09:32:37;;;;;;;3.28;3.08;;;;;;;;;;10150956;28;20407;-73
2024/01/21 09:37:29;;;;;;;4.47;3.10;;;;;;;;;;10146573;28;20143;-73
2024/01/21 09:42:22;;;;;;;6.45;5.93;;;;;;;;;;10153744;28;20056;-73
2024/01/21 09:47:14;;;;;;;7.32;3.40;;;;;;;;;;10151245;28;20052;-73
2024/01/21 09:52:06;;;;;;;4.25;3.78;;;;;;;;;;10132103;28;20048;-73
2024/01/21 09:56:59;;;;;;;11.25;8.88;;;;;;;;;;10140431;28;20323;-76
2024/01/21 10:01:51;;;;;;;4.25;3.85;;;;;;;;;;10147066;28;20044;-77
2024/01/21 10:06:43;;;;;;;5.47;4.68;;;;;;;;;;10155752;28;20080;-77
2024/01/21 10:11:36;;;;;;;5.53;3.53;;;;;;;;;;10153425;28;20127;-77
2024/01/21 10:16:27;;;;;;;5.68;3.47;;;;;;;;;;10159166;28;20048;-77
2024/01/21 10:21:20;;;;;;;3.70;3.40;;;;;;;;;;10147021;28;20048;-75
2024/01/21 10:26:12;;;;;;;3.40;3.10;;;;;;;;;;10145886;28;20356;-76
2024/01/21 10:31:06;;;;;;;3.70;3.08;;;;;;;;;;10147069;28;20102;-73
2024/01/21 10:36:00;;;;;;;3.45;3.17;;;;;;;;;;10145041;28;20142;-77
2024/01/21 10:40:54;;;;;;;3.50;3.20;;;;;;;;;;10145712;28;20049;-77
2024/01/21 10:45:46;;;;;;;3.72;3.35;;;;;;;;;;10142190;28;20539;-77
2024/01/21 10:50:41;;;;;;;6.13;4.22;;;;;;;;;;10145073;28;20044;-77
2024/01/21 10:55:34;;;;;;;6.22;4.95;;;;;;;;;;10143685;28;20045;-75
2024/01/21 11:00:27;;;;;;;6.50;4.95;;;;;;;;;;10144580;28;20068;-76
2024/01/21 11:05:19;;;;;;;4.45;3.90;;;;;;;;;;10152370;28;20434;-76
2024/01/21 11:10:11;;;;;;;3.25;2.95;;;;;;;;;;10149639;28;20502;-76
2024/01/21 11:15:31;;;;;;;3.13;2.83;;;;;;;;;;10149437;28;20047;-76
2024/01/21 11:20:26;;;;;;;3.78;3.47;;;;;;;;;;10151139;28;20068;-76
2024/01/21 11:25:34;;;;;;;8.45;7.10;;;;;;;;;;10162793;28;20106;-76
2024/01/21 11:30:28;;;;;;;5.82;5.22;;;;;;;;;;10152386;28;20048;-76
2024/01/21 11:35:20;;;;;;;4.72;4.18;;;;;;;;;;10162873;28;20054;-76
2024/01/21 11:40:12;;;;;;;6.50;4.78;;;;;;;;;;10159477;28;20363;-76
2024/01/21 11:45:05;;;;;;;6.70;2.88;;;;;;;;;;10149809;28;20558;-75
2024/01/21 11:49:59;;;;;;;4.03;3.50;;;;;;;;;;10151754;28;20094;-76
2024/01/21 11:54:51;;;;;;;4.47;3.17;;;;;;;;;;10153976;28;20144;-75
2024/01/21 11:59:42;;;;;;;3.38;3.08;;;;;;;;;;10156809;28;20371;-76
2024/01/21 12:04:35;;;;;;;9.05;5.20;;;;;;;;;;10156236;28;20148;-76
2024/01/21 12:09:28;;;;;;;4.72;4.32;;;;;;;;;;10137286;28;20040;-77
2024/01/21 12:14:21;;;;;;;4.18;3.78;;;;;;;;;;10147121;28;20748;-76
2024/01/21 12:19:13;;;;;;;4.18;3.80;;;;;;;;;;10132496;28;20476;-78
2024/01/21 12:24:07;;;;;;;4.55;4.13;;;;;;;;;;10146934;28;20090;-77
2024/01/21 12:29:03;;;;;;;4.00;3.70;;;;;;;;;;10146644;28;20040;-77
2024/01/21 12:33:55;;;;;;;3.42;3.13;;;;;;;;;;10148644;28;20431;-77
2024/01/21 12:38:49;;;;;;;4.32;3.85;;;;;;;;;;10148335;28;20033;-77
2024/01/21 12:43:42;;;;;;;3.70;3.40;;;;;;;;;;10147269;28;20135;-77
2024/01/21 12:48:34;;;;;;;3.90;3.58;;;;;;;;;;10146739;28;20377;-77
2024/01/21 12:53:27;;;;;;;6.50;3.80;;;;;;;;;;10130993;28;20094;-78
2024/01/21 12:58:19;;;;;;;4.32;3.92;;;;;;;;;;10147123;28;20059;-79
2024/01/21 13:03:11;;;;;;;4.22;3.90;;;;;;;;;;10175236;28;20044;-78
2024/01/21 13:08:03;;;;;;;4.55;4.15;;;;;;;;;;10184698;28;20052;-78
2024/01/21 13:12:57;;;;;;;7.05;3.47;;;;;;;;;;10167161;28;20041;-77
2024/01/21 13:17:49;;;;;;;4.38;3.70;;;;;;;;;;10184416;28;20424;-77
2024/01/21 13:22:41;;;;;;;15.38;4.78;;;;;;;;;;10184651;28;20122;-78
2024/01/21 13:27:40;;;;;;;5.22;4.70;;;;;;;;;;10184312;28;20159;-78
2024/01/21 13:32:32;;;;;;;3.85;3.55;;;;;;;;;;10185258;28;20118;-77
2024/01/21 13:37:27;;;;;;;4.75;4.32;;;;;;;;;;10177196;28;20032;-77
2024/01/21 13:42:18;;;;;;;5.88;4.57;;;;;;;;;;10183091;28;20135;-72
2024/01/21 13:47:10;;;;;;;8.10;4.68;;;;;;;;;;10163731;28;20448;-72
2024/01/21 13:52:03;;;;;;;4.93;4.40;;;;;;;;;;10162071;28;20459;-72
2024/01/21 13:56:56;;;;;;;5.63;4.75;;;;;;;;;;10177973;28;20039;-72
2024/01/21 14:01:48;;;;;;;8.10;5.25;;;;;;;;;;10169247;28;20032;-72
2024/01/21 14:06:55;;;;;;;6.82;4.50;;;;;;;;;;10167522;28;20360;-73
2024/01/21 14:11:47;;;;;;;6.35;4.78;;;;;;;;;;10182983;28;20032;-72
2024/01/21 14:16:39;;;;;;;4.95;4.43;;;;;;;;;;10173810;28;20044;-73
2024/01/21 14:21:31;;;;;;;7.10;5.70;;;;;;;;;;10178935;28;20064;-69
2024/01/21 14:26:32;;;;;;;12.63;8.70;;;;;;;;;;10177886;28;20162;-69
2024/01/21 14:31:25;;;;;;;9.38;7.93;;;;;;;;;;10157857;28;20475;-69
2024/01/21 14:36:17;;;;;;;10.98;9.20;;;;;;;;;;10157160;28;20466;-69
2024/01/21 14:41:09;;;;;;;8.18;7.35;;;;;;;;;;10145038;28;20458;-69
2024/01/21 14:46:01;;;;;;;8.02;6.15;;;;;;;;;;10146979;28;20052;-69
2024/01/21 14:50:53;;;;;;;9.95;7.43;;;;;;;;;;10148565;28;20041;-69
2024/01/21 14:55:45;;;;;;;7.35;6.65;;;;;;;;;;10150159;28;20044;-69
2024/01/21 15:00:37;;;;;;;16.25;8.57;;;;;;;;;;10164462;28;20451;-69
2024/01/21 15:05:29;;;;;;;10.15;6.82;;;;;;;;;;10151773;28;20075;-68
2024/01/21 15:10:21;;;;;;;8.90;8.00;;;;;;;;;;10156980;28;20048;-69
2024/01/21 15:15:21;;;;;;;14.48;8.07;;;;;;;;;;10151363;28;20128;-69
2024/01/21 15:20:13;;;;;;;9.98;7.38;;;;;;;;;;10169359;28;20193;-69
2024/01/21 15:25:05;;;;;;;9.00;7.82;;;;;;;;;;10162021;28;20127;-69
2024/01/21 15:29:57;;;;;;;20.13;13.90;;;;;;;;;;10158829;28;20105;-69
2024/01/21 15:34:49;;;;;;;11.20;9.70;;;;;;;;;;10150166;28;20091;-69
2024/01/21 15:39:41;;;;;;;12.32;9.02;;;;;;;;;;10164533;28;20036;-69
2024/01/21 15:44:34;;;;;;;15.95;9.38;;;;;;;;;;10148990;28;20044;-69
2024/01/21 15:49:26;;;;;;;10.73;9.25;;;;;;;;;;10157243;28;20450;-69
2024/01/21 15:54:18;;;;;;;12.02;10.60;;;;;;;;;;10161693;28;20051;-69
2024/01/21 15:59:10;;;;;;;14.93;12.60;;;;;;;;;;10155404;28;20384;-69
2024/01/21 16:04:02;;;;;;;31.42;23.90;;;;;;;;;;10172670;28;20076;-69
2024/01/21 16:08:54;;;;;;;21.15;17.63;;;;;;;;;;10170734;28;20446;-69
2024/01/21 16:13:46;;;;;;;19.08;16.27;;;;;;;;;;10160699;28;20037;-69
2024/01/21 16:18:38;;;;;;;23.05;16.83;;;;;;;;;;10161861;28;20455;-69
2024/01/21 16:23:30;;;;;;;39.35;24.33;;;;;;;;;;10161198;28;20123;-69
2024/01/21 16:28:23;;;;;;;18.00;13.43;;;;;;;;;;10161937;28;20048;-70
2024/01/21 16:33:15;;;;;;;14.57;10.57;;;;;;;;;;10160111;28;20044;-69
2024/01/21 16:38:07;;;;;;;28.83;17.95;;;;;;;;;;10155059;28;20072;-70
2024/01/21 16:42:59;;;;;;;18.90;12.98;;;;;;;;;;10158549;28;20044;-70
2024/01/21 16:47:51;;;;;;;10.00;9.00;;;;;;;;;;10157845;28;20103;-70
2024/01/21 16:52:45;;;;;;;14.25;12.07;;;;;;;;;;10156561;28;20797;-69
2024/01/21 16:57:37;;;;;;;23.77;15.48;;;;;;;;;;10134069;28;20049;-69
2024/01/21 17:02:29;;;;;;;39.63;29.83;;;;;;;;;;10155978;28;20051;-69
2024/01/21 17:07:21;;;;;;;67.47;47.47;;;;;;;;;;10144853;28;20387;-69
2024/01/21 17:12:36;;;;;;;33.70;26.40;;;;;;;;;;10161232;28;20463;-69
2024/01/21 17:17:28;;;;;;;22.92;18.30;;;;;;;;;;10152155;28;20036;-69
2024/01/21 17:22:21;;;;;;;16.60;13.10;;;;;;;;;;10160721;28;20040;-69
2024/01/21 17:27:13;;;;;;;29.52;21.55;;;;;;;;;;10156647;28;20060;-69
2024/01/21 17:32:05;;;;;;;54.65;40.17;;;;;;;;;;10154363;28;20044;-70
2024/01/21 17:36:57;;;;;;;12.80;11.50;;;;;;;;;;10161509;28;20149;-69
2024/01/21 17:41:49;;;;;;;56.28;35.63;;;;;;;;;;10162493;28;20047;-69
2024/01/21 17:46:41;;;;;;;26.38;20.38;;;;;;;;;;10161825;28;20060;-69
2024/01/21 17:51:33;;;;;;;22.73;17.48;;;;;;;;;;10156937;28;20131;-69
2024/01/21 17:56:26;;;;;;;33.90;25.65;;;;;;;;;;10155439;28;20098;-70
2024/01/21 18:01:19;;;;;;;27.70;19.05;;;;;;;;;;10164679;28;20131;-70
2024/01/21 18:06:11;;;;;;;30.88;23.88;;;;;;;;;;10160964;28;20051;-69
2024/01/21 18:11:03;;;;;;;23.50;17.63;;;;;;;;;;10173765;28;20063;-70
2024/01/21 18:15:55;;;;;;;25.73;19.23;;;;;;;;;;10171712;28;20151;-70
2024/01/21 18:20:47;;;;;;;14.45;11.60;;;;;;;;;;10156930;28;20664;-69
2024/01/21 18:25:39;;;;;;;13.55;11.07;;;;;;;;;;10150617;28;20377;-69
2024/01/21 18:30:31;;;;;;;13.77;10.48;;;;;;;;;;10156913;28;20103;-70
2024/01/21 18:35:23;;;;;;;13.07;9.98;;;;;;;;;;10159398;28;20210;-69
2024/01/21 18:40:15;;;;;;;258.95;150.27;;;;;;;;;;10155684;28;20124;-69
2024/01/21 18:45:08;;;;;;;71.47;43.55;;;;;;;;;;10171876;28;20114;-69
2024/01/21 18:50:00;;;;;;;35.95;27.55;;;;;;;;;;10182012;28;20055;-71
2024/01/21 18:54:56;;;;;;;72.40;45.45;;;;;;;;;;10158124;28;20124;-69
2024/01/21 18:59:49;;;;;;;12.93;9.35;;;;;;;;;;10168525;28;20087;-69
2024/01/21 19:04:42;;;;;;;19.02;12.70;;;;;;;;;;10165217;28;20064;-70
2024/01/21 19:09:40;;;;;;;42.53;25.40;;;;;;;;;;10165747;28;20109;-70
2024/01/21 19:14:32;;;;;;;34.13;21.30;;;;;;;;;;10156919;28;20068;-70
2024/01/21 19:19:24;;;;;;;16.10;12.75;;;;;;;;;;10167101;28;20467;-69
2024/01/21 19:24:16;;;;;;;14.32;11.73;;;;;;;;;;10170771;28;20049;-70
2024/01/21 19:29:09;;;;;;;13.13;9.65;;;;;;;;;;10178110;28;20386;-69
2024/01/21 19:34:01;;;;;;;17.48;13.82;;;;;;;;;;10174339;28;20068;-72
2024/01/21 19:38:54;;;;;;;11.05;8.68;;;;;;;;;;10187138;28;20059;-70
2024/01/21 19:43:48;;;;;;;26.67;13.32;;;;;;;;;;10165107;28;20367;-70
2024/01/21 19:48:40;;;;;;;16.77;12.02;;;;;;;;;;10159289;28;20036;-69
2024/01/21 19:53:32;;;;;;;17.52;11.52;;;;;;;;;;10158880;28;20041;-71
2024/01/21 19:58:24;;;;;;;35.63;23.17;;;;;;;;;;10171640;28;20048;-71
2024/01/21 20:03:16;;;;;;;19.90;12.43;;;;;;;;;;10165453;28;20040;-71
2024/01/21 20:08:08;;;;;;;16.92;13.75;;;;;;;;;;10160737;28;20055;-72
2024/01/21 20:13:00;;;;;;;18.75;13.63;;;;;;;;;;10165460;28;21086;-71
2024/01/21 20:17:52;;;;;;;56.78;38.38;;;;;;;;;;10173542;28;20045;-71
2024/01/21 20:22:48;;;;;;;35.35;25.90;;;;;;;;;;10166640;28;20759;-69
2024/01/21 20:27:41;;;;;;;12.70;9.60;;;;;;;;;;10177851;28;20374;-71
2024/01/21 20:32:36;;;;;;;14.27;12.05;;;;;;;;;;10178017;28;20072;-72
2024/01/21 20:37:30;;;;;;;20.50;17.05;;;;;;;;;;10161779;28;20484;-70
2024/01/21 20:42:22;;;;;;;9.93;8.90;;;;;;;;;;10184695;28;20116;-71
2024/01/21 20:47:15;;;;;;;8.20;7.40;;;;;;;;;;10183797;28;20096;-70
2024/01/21 20:52:07;;;;;;;10.18;8.88;;;;;;;;;;10183288;28;20044;-69
2024/01/21 20:56:59;;;;;;;8.50;7.70;;;;;;;;;;10183937;28;20044;-72
2024/01/21 21:01:51;;;;;;;9.65;7.78;;;;;;;;;;10169192;28;20055;-69
2024/01/21 21:06:43;;;;;;;13.07;10.15;;;;;;;;;;10161017;28;20490;-69
2024/01/21 21:11:35;;;;;;;7.72;6.72;;;;;;;;;;10176102;28;20115;-70
2024/01/21 21:16:27;;;;;;;9.50;8.10;;;;;;;;;;10181184;28;20388;-71
2024/01/21 21:21:20;;;;;;;9.70;8.70;;;;;;;;;;10183662;28;20051;-69
2024/01/21 21:26:12;;;;;;;14.70;9.95;;;;;;;;;;10183805;28;20044;-71
2024/01/21 21:31:04;;;;;;;12.35;9.73;;;;;;;;;;10184156;28;20082;-70
2024/01/21 21:35:57;;;;;;;11.68;10.57;;;;;;;;;;10183177;28;20039;-70
2024/01/21 21:40:52;;;;;;;13.70;10.95;;;;;;;;;;10182942;28;20048;-70
2024/01/21 21:45:45;;;;;;;16.27;14.65;;;;;;;;;;10172638;28;20086;-71
2024/01/21 21:50:38;;;;;;;16.08;13.70;;;;;;;;;;10152458;28;20050;-70
2024/01/21 21:55:31;;;;;;;13.57;12.13;;;;;;;;;;10146571;28;20418;-71
2024/01/21 22:00:23;;;;;;;8.63;7.82;;;;;;;;;;10147646;28;20102;-69
2024/01/21 22:05:17;;;;;;;9.82;8.30;;;;;;;;;;10165696;28;20040;-70
2024/01/21 22:10:11;;;;;;;8.77;7.88;;;;;;;;;;10184035;28;20060;-71
2024/01/21 22:15:04;;;;;;;8.18;7.28;;;;;;;;;;10183556;28;20083;-70
2024/01/21 22:19:56;;;;;;;7.10;6.50;;;;;;;;;;10180290;28;20043;-70
2024/01/21 22:24:48;;;;;;;7.95;7.22;;;;;;;;;;10177371;28;20044;-73
2024/01/21 22:29:40;;;;;;;6.57;5.85;;;;;;;;;;10173785;28;20052;-70
2024/01/21 22:34:32;;;;;;;6.88;6.20;;;;;;;;;;10175200;28;20072;-71
2024/01/21 22:39:23;;;;;;;7.22;6.35;;;;;;;;;;10183454;28;20101;-71
2024/01/21 22:44:15;;;;;;;6.95;6.35;;;;;;;;;;10182223;28;20741;-71
2024/01/21 22:49:07;;;;;;;8.02;7.22;;;;;;;;;;10177648;28;20147;-70
2024/01/21 22:54:00;;;;;;;14.05;10.48;;;;;;;;;;10175897;28;20147;-70
2024/01/21 22:58:52;;;;;;;12.38;11.07;;;;;;;;;;10174933;28;20474;-70
2024/01/21 23:03:44;;;;;;;11.35;10.23;;;;;;;;;;10177775;28;20044;-70
2024/01/21 23:08:36;;;;;;;12.18;9.18;;;;;;;;;;10177450;28;20036;-70
2024/01/21 23:13:28;;;;;;;10.65;7.93;;;;;;;;;;10159974;28;20486;-70
2024/01/21 23:18:20;;;;;;;8.48;7.15;;;;;;;;;;10190528;28;20052;-69
2024/01/21 23:23:12;;;;;;;8.02;7.22;;;;;;;;;;10189500;28;20491;-70
2024/01/21 23:28:04;;;;;;;8.07;6.72;;;;;;;;;;10190332;28;20044;-71
2024/01/21 23:32:56;;;;;;;8.90;7.40;;;;;;;;;;10189846;28;20044;-70
2024/01/21 23:37:48;;;;;;;8.50;7.70;;;;;;;;;;10189572;28;20075;-70
2024/01/21 23:42:40;;;;;;;9.48;7.60;;;;;;;;;;10189822;28;20075;-70
2024/01/21 23:47:34;;;;;;;7.82;6.53;;;;;;;;;;10188456;28;20048;-70
2024/01/21 23:52:26;;;;;;;7.90;7.15;;;;;;;;;;10188920;28;20078;-71
2024/01/21 23:57:19;;;;;;;7.40;6.57;;;;;;;;;;10188542;28;20114;-70
